createdAt,value
2018-04-23T00:04:17.115Z,76.30
2018-04-23T00:09:08.627Z,79.50
2018-04-23T00:14:00.869Z,83.10
2018-04-23T00:18:52.469Z,82.90
2018-04-23T00:23:43.964Z,82.80
2018-04-23T00:28:36.204Z,81.50
2018-04-23T00:33:28.443Z,81.00
2018-04-23T00:38:19.934Z,81.10
2018-04-23T00:43:11.433Z,83.10
2018-04-23T00:48:03.706Z,85.20
2018-04-23T00:53:13.616Z,85.10
2018-04-23T00:58:05.140Z,85.00
2018-04-23T01:02:56.657Z,85.40
2018-04-23T01:07:48.148Z,85.50
2018-04-23T01:12:40.382Z,85.40
2018-04-23T01:17:32.657Z,84.70
2018-04-23T01:22:24.166Z,84.60
2018-04-23T01:27:16.440Z,84.90
2018-04-23T01:32:07.948Z,84.50
2018-04-23T01:37:00.203Z,85.30
2018-04-23T01:41:52.448Z,85.80
2018-04-23T01:46:43.949Z,85.70
2018-04-23T01:51:35.450Z,85.30
2018-04-23T01:56:27.008Z,84.70
2018-04-23T02:01:18.529Z,84.00
2018-04-23T02:06:10.115Z,84.20
2018-04-23T02:11:01.656Z,84.00
2018-04-23T02:15:53.895Z,84.50
2018-04-23T02:20:45.378Z,84.50
2018-04-23T02:25:36.884Z,84.60
2018-04-23T02:30:29.121Z,85.00
2018-04-23T02:35:20.623Z,84.80
2018-04-23T02:40:12.233Z,85.10
2018-04-23T02:45:03.772Z,85.10
2018-04-23T02:49:55.259Z,84.40
2018-04-23T02:54:47.522Z,82.80
2018-04-23T02:59:39.796Z,82.20
2018-04-23T03:04:31.319Z,82.10
2018-04-23T03:09:23.553Z,81.80
2018-04-23T03:14:15.793Z,81.60
2018-04-23T03:19:07.337Z,81.60
2018-04-23T03:24:00.275Z,82.10
2018-04-23T03:28:51.758Z,81.90
2018-04-23T03:33:43.274Z,81.80
2018-04-23T03:38:35.516Z,80.80
2018-04-23T03:43:27.000Z,80.70
2018-04-23T03:48:18.495Z,80.10
2018-04-23T03:53:10.746Z,77.60
2018-04-23T03:58:03.030Z,77.90
2018-04-23T04:02:54.543Z,77.80
2018-04-23T04:07:46.080Z,79.00
2018-04-23T04:18:36.179Z,78.20
2018-04-23T04:23:27.672Z,78.40
2018-04-23T04:28:19.138Z,78.30
2018-04-23T04:33:10.672Z,78.30
2018-04-23T04:38:02.151Z,77.90
2018-04-23T04:42:53.671Z,77.80
2018-04-23T04:47:45.909Z,77.20
2018-04-23T04:52:37.430Z,77.10
2018-04-23T04:57:28.947Z,76.50
2018-04-23T05:02:20.438Z,76.40
2018-04-23T05:07:11.917Z,76.50
2018-04-23T05:12:03.476Z,73.60
2018-04-23T05:16:55.718Z,74.10
2018-04-23T05:21:47.231Z,74.00
2018-04-23T05:26:38.703Z,72.80
2018-04-23T05:31:30.953Z,71.30
2018-04-23T05:36:23.193Z,70.20
2018-04-23T05:41:14.693Z,70.20
2018-04-23T05:46:06.191Z,68.80
2018-04-23T05:50:57.681Z,64.70
2018-04-23T05:55:49.183Z,62.20
2018-04-23T06:00:40.675Z,61.40
2018-04-23T06:05:32.934Z,57.90
2018-04-23T06:10:24.432Z,57.90
2018-04-23T06:15:15.931Z,58.30
2018-04-23T06:20:07.447Z,58.80
2018-04-23T06:24:58.940Z,59.10
2018-04-23T06:29:51.474Z,60.30
2018-04-23T06:34:43.035Z,60.80
2018-04-23T06:39:34.567Z,60.00
2018-04-23T06:44:26.111Z,60.00
2018-04-23T06:49:18.349Z,56.40
2018-04-23T06:54:09.854Z,56.40
2018-04-23T06:59:01.450Z,55.30
2018-04-23T07:03:52.914Z,52.10
2018-04-23T07:08:44.434Z,48.90
2018-04-23T07:13:35.920Z,47.60
2018-04-23T07:18:27.450Z,45.80
2018-04-23T07:23:19.012Z,46.00
2018-04-23T07:28:11.337Z,44.00
2018-04-23T07:33:03.008Z,43.80
2018-04-23T07:37:54.993Z,42.50
2018-04-23T07:42:46.505Z,39.80
2018-04-23T07:47:38.006Z,40.30
2018-04-23T07:52:30.445Z,39.10
2018-04-23T07:57:21.947Z,39.00
2018-04-23T08:02:13.438Z,39.30
2018-04-23T08:07:05.664Z,35.60
2018-04-23T08:11:57.177Z,35.50
2018-04-23T08:16:48.655Z,34.30
2018-04-23T08:21:40.930Z,36.10
2018-04-23T08:26:32.444Z,36.00
2018-04-23T08:31:24.932Z,33.50
2018-04-23T08:36:16.459Z,33.50
2018-04-23T08:41:07.987Z,32.30
2018-04-23T08:45:59.524Z,32.70
2018-04-23T08:50:51.144Z,30.50
2018-04-23T08:55:43.425Z,28.90
2018-04-23T09:00:34.971Z,28.80
2018-04-23T09:05:27.211Z,32.90
2018-04-23T09:10:18.718Z,32.80
2018-04-23T09:15:10.424Z,36.10
2018-04-23T09:20:01.945Z,36.50
2018-04-23T09:24:53.557Z,37.90
2018-04-23T09:29:45.041Z,35.40
2018-04-23T09:34:37.297Z,31.40
2018-04-23T09:39:29.671Z,32.60
2018-04-23T09:44:21.229Z,32.40
2018-04-23T09:49:12.888Z,32.60
2018-04-23T09:54:04.388Z,33.30
2018-04-23T09:58:55.915Z,33.90
2018-04-23T10:03:50.363Z,36.00
2018-04-23T10:08:42.385Z,35.50
2018-04-23T10:13:33.881Z,35.40
2018-04-23T10:18:26.172Z,36.60
2018-04-23T10:23:17.655Z,36.50
2018-04-23T10:28:09.959Z,38.10
2018-04-23T10:33:01.499Z,38.00
2018-04-23T10:37:53.059Z,38.90
2018-04-23T10:42:44.588Z,38.20
2018-04-23T10:47:36.091Z,38.60
2018-04-23T10:52:27.607Z,38.20
2018-04-23T10:57:19.095Z,38.20
2018-04-23T11:02:10.621Z,37.00
2018-04-23T11:07:02.147Z,37.30
2018-04-23T11:11:53.662Z,36.80
2018-04-23T11:16:45.168Z,37.80
2018-04-23T11:21:36.702Z,37.50
2018-04-23T11:26:28.213Z,38.50
2018-04-23T11:31:20.488Z,39.50
2018-04-23T11:36:11.972Z,39.30
2018-04-23T11:41:03.502Z,38.40
2018-04-23T11:45:56.105Z,35.70
2018-04-23T11:50:47.620Z,36.40
2018-04-23T11:55:39.856Z,34.90
2018-04-23T12:00:31.376Z,34.70
2018-04-23T12:05:22.868Z,32.80
2018-04-23T12:10:14.374Z,33.20
2018-04-23T12:15:06.624Z,34.60
2018-04-23T12:19:58.844Z,34.10
2018-04-23T12:24:50.356Z,34.00
2018-04-23T12:29:41.838Z,34.90
2018-04-23T12:34:34.163Z,36.70
2018-04-23T12:39:25.781Z,36.60
2018-04-23T12:44:17.533Z,38.00
2018-04-23T12:49:09.770Z,37.50
2018-04-23T12:54:02.052Z,38.40
2018-04-23T12:58:53.577Z,38.30
2018-04-23T13:03:45.079Z,36.70
2018-04-23T13:08:36.581Z,36.70
2018-04-23T13:13:28.852Z,34.50
2018-04-23T13:18:20.423Z,34.50
2018-04-23T13:23:11.992Z,34.40
2018-04-23T13:28:04.325Z,34.30
2018-04-23T13:32:55.845Z,34.30
2018-04-23T13:37:47.487Z,34.30
2018-04-23T13:42:38.998Z,33.80
2018-04-23T13:47:30.476Z,33.90
2018-04-23T13:52:22.759Z,34.80
2018-04-23T13:57:14.297Z,34.80
2018-04-23T14:02:05.800Z,32.40
2018-04-23T14:06:58.109Z,33.20
2018-04-23T14:11:49.582Z,33.10
2018-04-23T14:16:41.856Z,31.90
2018-04-23T14:21:33.366Z,31.80
2018-04-23T14:26:25.733Z,30.60
2018-04-23T14:31:18.085Z,31.40
2018-04-23T14:36:10.353Z,31.90
2018-04-23T14:41:01.868Z,31.80
2018-04-23T14:45:54.099Z,30.80
2018-04-23T14:50:45.602Z,30.80
2018-04-23T14:55:37.109Z,31.70
2018-04-23T15:00:28.645Z,30.50
2018-04-23T15:05:20.179Z,32.70
2018-04-23T15:10:11.685Z,34.20
2018-04-23T15:15:03.925Z,35.50
2018-04-23T15:19:55.438Z,35.50
2018-04-23T15:24:46.924Z,35.80
2018-04-23T15:29:38.486Z,35.20
2018-04-23T15:34:29.967Z,35.30
2018-04-23T15:39:22.377Z,36.10
2018-04-23T15:44:13.890Z,36.10
2018-04-23T15:49:05.356Z,36.70
2018-04-23T15:53:56.914Z,35.80
2018-04-23T15:58:49.149Z,34.80
2018-04-23T16:03:40.660Z,34.80
2018-04-23T16:08:32.187Z,34.60
2018-04-23T16:13:23.736Z,34.70
2018-04-23T16:18:15.265Z,34.90
2018-04-23T16:23:06.787Z,34.70
2018-04-23T16:27:58.321Z,34.60
2018-04-23T16:32:49.831Z,35.20
2018-04-23T16:37:41.312Z,35.20
2018-04-23T16:42:32.839Z,35.70
2018-04-23T16:47:24.332Z,35.90
2018-04-23T16:52:15.834Z,35.30
2018-04-23T16:57:07.327Z,35.80
2018-04-23T17:01:58.816Z,36.40
2018-04-23T17:06:51.090Z,37.00
2018-04-23T17:11:42.602Z,36.90
2018-04-23T17:16:34.911Z,38.50
2018-04-23T17:21:26.451Z,38.50
2018-04-23T17:26:17.990Z,38.40
2018-04-23T17:31:09.500Z,38.50
2018-04-23T17:36:01.027Z,39.30
2018-04-23T17:40:52.527Z,40.10
2018-04-23T17:45:44.823Z,41.10
2018-04-23T17:50:36.342Z,41.00
2018-04-23T17:55:27.877Z,41.70
2018-04-23T18:00:19.397Z,42.40
2018-04-23T18:05:10.906Z,41.60
2018-04-23T18:10:03.221Z,42.20
2018-04-23T18:14:54.695Z,42.10
2018-04-23T18:19:46.973Z,43.80
2018-04-23T18:24:38.491Z,43.60
2018-04-23T18:29:30.727Z,45.60
2018-04-23T18:34:22.994Z,46.20
2018-04-23T18:39:14.519Z,46.10
2018-04-23T18:44:07.627Z,48.00
2018-04-23T18:48:59.122Z,47.90
2018-04-23T18:53:51.379Z,49.70
2018-04-23T18:58:43.683Z,50.60
2018-04-23T19:03:35.161Z,50.60
2018-04-23T19:08:27.464Z,51.70
2018-04-23T19:13:18.949Z,51.70
2018-04-23T19:18:11.194Z,52.60
2018-04-23T19:23:03.445Z,52.40
2018-04-23T19:27:55.679Z,53.00
2018-04-23T19:32:47.199Z,53.00
2018-04-23T19:37:38.707Z,53.20
2018-04-23T19:42:30.204Z,53.90
2018-04-23T19:47:22.468Z,54.40
2018-04-23T19:52:13.983Z,54.40
2018-04-23T19:57:06.224Z,53.80
2018-04-23T20:01:58.507Z,54.40
2018-04-23T20:06:50.027Z,54.30
2018-04-23T20:11:41.539Z,54.70
2018-04-23T20:16:33.150Z,55.60
2018-04-23T20:21:24.738Z,56.50
2018-04-23T20:26:16.193Z,56.60
2018-04-23T20:31:07.663Z,56.60
2018-04-23T20:35:59.181Z,57.40
2018-04-23T20:40:50.676Z,57.80
2018-04-23T20:45:42.193Z,58.30
2018-04-23T20:50:34.510Z,59.40
2018-04-23T20:55:26.031Z,59.30
2018-04-23T21:00:17.571Z,60.10
2018-04-23T21:05:09.077Z,61.00
2018-04-23T21:10:00.596Z,61.40
2018-04-23T21:14:52.116Z,62.00
2018-04-23T21:19:44.369Z,62.50
2018-04-23T21:24:36.618Z,62.20
2018-04-23T21:29:28.874Z,61.90
2018-04-23T21:34:21.109Z,61.70
2018-04-23T21:39:13.448Z,61.60
2018-04-23T21:44:04.983Z,61.40
2018-04-23T21:48:57.255Z,61.30
2018-04-23T21:53:49.566Z,60.70
2018-04-23T21:58:41.073Z,60.60
2018-04-23T22:03:33.491Z,60.40
2018-04-23T22:08:25.765Z,60.40
2018-04-23T22:13:17.277Z,60.20
2018-04-23T22:18:09.556Z,60.40
2018-04-23T22:23:01.783Z,60.40
2018-04-23T22:27:53.995Z,61.00
2018-04-23T22:32:45.550Z,60.90
2018-04-23T22:37:37.829Z,61.10
2018-04-23T22:42:29.380Z,61.00
2018-04-23T22:47:20.880Z,61.20
2018-04-23T22:52:13.214Z,61.70
2018-04-23T22:57:04.686Z,61.60
2018-04-23T23:01:56.176Z,61.70
2018-04-23T23:06:47.685Z,62.20
2018-04-23T23:11:40.049Z,62.90
2018-04-23T23:16:31.573Z,63.00
2018-04-23T23:21:23.091Z,63.40
2018-04-23T23:26:14.578Z,63.80
2018-04-23T23:31:06.092Z,63.60
2018-04-23T23:35:57.587Z,64.00
2018-04-23T23:40:49.103Z,64.20
2018-04-23T23:45:40.650Z,63.90
2018-04-23T23:50:32.187Z,63.70
2018-04-23T23:55:23.675Z,63.90
